createdAt,value
2023-05-23T00:01:31.177Z,8.60
2023-05-23T00:03:58.366Z,9.00
2023-05-23T00:06:24.968Z,8.80
2023-05-23T00:08:51.706Z,9.40
2023-05-23T00:11:18.254Z,9.40
2023-05-23T00:13:44.833Z,8.80
2023-05-23T00:16:11.565Z,8.60
2023-05-23T00:18:38.676Z,8.60
2023-05-23T00:21:05.265Z,8.90
2023-05-23T00:23:31.942Z,8.60
2023-05-23T00:25:58.461Z,8.00
2023-05-23T00:28:24.990Z,8.90
2023-05-23T00:30:51.739Z,7.70
2023-05-23T00:33:18.545Z,8.30
2023-05-23T00:35:45.225Z,8.50
2023-05-23T00:38:11.807Z,8.60
2023-05-23T00:40:38.610Z,8.80
2023-05-23T00:43:05.155Z,8.00
2023-05-23T00:45:32.006Z,8.10
2023-05-23T00:47:59.375Z,8.20
2023-05-23T00:50:26.501Z,9.70
2023-05-23T00:52:53.060Z,8.30
2023-05-23T00:55:19.605Z,8.40
2023-05-23T00:57:46.280Z,8.10
2023-05-23T01:00:13.439Z,8.90
2023-05-23T01:02:43.795Z,7.80
2023-05-23T01:05:17.935Z,8.10
2023-05-23T01:07:45.615Z,8.30
2023-05-23T01:10:13.420Z,8.60
2023-05-23T01:13:05.732Z,8.80
2023-05-23T01:15:48.048Z,9.20
2023-05-23T01:18:29.807Z,7.80
2023-05-23T01:21:03.560Z,8.30
2023-05-23T01:23:36.617Z,8.40
2023-05-23T01:26:46.613Z,7.70
2023-05-23T01:29:39.773Z,8.00
2023-05-23T01:32:10.644Z,8.70
2023-05-23T01:34:38.316Z,8.30
2023-05-23T01:37:09.615Z,9.10
2023-05-23T01:39:36.624Z,9.10
2023-05-23T01:42:03.556Z,8.20
2023-05-23T01:44:30.736Z,9.00
2023-05-23T01:46:57.799Z,11.40
2023-05-23T01:49:24.846Z,8.40
2023-05-23T01:51:51.532Z,9.00
2023-05-23T01:54:18.590Z,9.40
2023-05-23T01:56:45.743Z,9.20
2023-05-23T01:59:12.966Z,8.60
2023-05-23T02:01:39.787Z,9.10
2023-05-23T02:04:06.494Z,8.60
2023-05-23T02:06:33.036Z,9.10
2023-05-23T02:08:59.549Z,8.50
2023-05-23T02:11:26.111Z,9.10
2023-05-23T02:13:52.766Z,8.60
2023-05-23T02:16:19.350Z,8.10
2023-05-23T02:18:45.921Z,9.00
2023-05-23T02:21:12.468Z,8.70
2023-05-23T02:23:38.959Z,9.80
2023-05-23T02:26:05.581Z,8.70
2023-05-23T02:28:32.180Z,8.90
2023-05-23T02:30:59.321Z,9.00
2023-05-23T02:33:25.857Z,8.50
2023-05-23T02:35:52.617Z,8.90
2023-05-23T02:38:19.260Z,9.40
2023-05-23T02:40:45.870Z,10.80
2023-05-23T02:43:12.473Z,9.70
2023-05-23T02:45:39.200Z,9.50
2023-05-23T02:48:05.847Z,8.90
2023-05-23T02:50:32.692Z,9.70
2023-05-23T02:52:59.259Z,8.90
2023-05-23T02:55:25.771Z,8.90
2023-05-23T02:57:52.483Z,9.30
2023-05-23T03:00:19.129Z,8.30
2023-05-23T03:02:45.759Z,9.20
2023-05-23T03:05:12.423Z,9.60
2023-05-23T03:07:38.937Z,8.90
2023-05-23T03:10:06.232Z,8.60
2023-05-23T03:12:32.787Z,9.00
2023-05-23T03:14:59.403Z,9.40
2023-05-23T03:17:26.034Z,8.10
2023-05-23T03:19:52.705Z,9.10
2023-05-23T03:22:19.373Z,8.80
2023-05-23T03:24:45.979Z,10.40
2023-05-23T03:27:12.595Z,10.00
2023-05-23T03:29:39.835Z,9.70
2023-05-23T03:32:06.777Z,9.80
2023-05-23T03:34:33.896Z,9.50
2023-05-23T03:37:00.486Z,9.50
2023-05-23T03:39:26.982Z,9.10
2023-05-23T03:41:53.604Z,10.00
2023-05-23T03:44:20.264Z,10.20
2023-05-23T03:46:46.828Z,9.80
2023-05-23T03:49:13.476Z,9.50
2023-05-23T03:51:40.024Z,9.00
2023-05-23T03:54:06.599Z,9.10
2023-05-23T03:56:33.204Z,9.10
2023-05-23T03:58:59.722Z,9.70
2023-05-23T04:01:26.234Z,10.30
2023-05-23T04:03:53.341Z,10.70
2023-05-23T04:06:20.827Z,10.60
2023-05-23T04:08:47.410Z,10.20
2023-05-23T04:11:14.254Z,10.40
2023-05-23T04:13:40.827Z,10.00
2023-05-23T04:16:07.388Z,9.70
2023-05-23T04:18:33.995Z,10.90
2023-05-23T04:21:00.508Z,9.70
2023-05-23T04:23:27.241Z,9.60
2023-05-23T04:25:53.810Z,9.50
2023-05-23T04:28:20.306Z,9.00
2023-05-23T04:30:46.845Z,9.10
2023-05-23T04:33:13.450Z,8.80
2023-05-23T04:35:40.293Z,8.20
2023-05-23T04:38:07.248Z,9.20
2023-05-23T04:40:33.802Z,8.90
2023-05-23T04:43:00.366Z,9.20
2023-05-23T04:45:27.101Z,9.00
2023-05-23T04:47:53.664Z,10.10
2023-05-23T04:50:20.854Z,9.00
2023-05-23T04:52:47.645Z,8.40
2023-05-23T04:55:14.333Z,8.80
2023-05-23T04:57:41.027Z,8.30
2023-05-23T05:00:08.127Z,8.40
2023-05-23T05:02:34.639Z,8.20
2023-05-23T05:05:01.218Z,7.50
2023-05-23T05:07:27.827Z,7.60
2023-05-23T05:09:54.358Z,7.50
2023-05-23T05:12:20.851Z,8.50
2023-05-23T05:14:47.478Z,8.50
2023-05-23T05:17:14.062Z,7.40
2023-05-23T05:19:40.605Z,8.00
2023-05-23T05:22:07.146Z,7.00
2023-05-23T05:24:33.780Z,7.50
2023-05-23T05:27:00.238Z,7.50
2023-05-23T05:29:26.764Z,7.30
2023-05-23T05:31:53.328Z,7.20
2023-05-23T05:34:19.901Z,7.90
2023-05-23T05:36:46.480Z,7.40
2023-05-23T05:39:13.400Z,7.80
2023-05-23T05:41:40.121Z,8.50
2023-05-23T05:44:08.324Z,7.40
2023-05-23T05:46:34.880Z,7.40
2023-05-23T05:49:01.446Z,6.80
2023-05-23T05:51:27.979Z,6.70
2023-05-23T05:53:54.552Z,6.70
2023-05-23T05:56:21.171Z,6.00
2023-05-23T05:58:47.720Z,6.20
2023-05-23T06:01:14.258Z,6.90
2023-05-23T06:03:40.887Z,11.60
2023-05-23T06:06:07.790Z,8.20
2023-05-23T06:08:34.509Z,8.40
2023-05-23T06:11:01.004Z,7.80
2023-05-23T06:13:27.504Z,7.50
2023-05-23T06:15:54.199Z,7.20
2023-05-23T06:18:20.914Z,6.90
2023-05-23T06:20:47.462Z,6.40
2023-05-23T06:23:13.981Z,6.60
2023-05-23T06:25:40.504Z,5.80
2023-05-23T06:28:07.146Z,6.10
2023-05-23T06:30:33.819Z,6.30
2023-05-23T06:33:00.397Z,6.50
2023-05-23T06:35:26.996Z,6.60
2023-05-23T06:37:53.518Z,6.00
2023-05-23T06:40:20.149Z,5.90
2023-05-23T06:42:46.679Z,5.80
2023-05-23T06:45:15.691Z,5.90
2023-05-23T06:47:43.193Z,5.50
2023-05-23T06:50:10.136Z,6.50
2023-05-23T06:52:36.761Z,5.50
2023-05-23T06:55:03.449Z,6.10
2023-05-23T06:57:29.941Z,5.90
2023-05-23T06:59:56.432Z,6.00
2023-05-23T07:02:23.138Z,6.30
2023-05-23T07:04:49.692Z,5.90
2023-05-23T07:07:16.219Z,5.60
2023-05-23T07:09:42.725Z,5.50
2023-05-23T07:12:09.204Z,5.60
2023-05-23T07:14:35.737Z,5.50
2023-05-23T07:17:02.298Z,6.10
2023-05-23T07:19:28.944Z,5.70
2023-05-23T07:21:55.601Z,6.30
2023-05-23T07:24:24.507Z,5.40
2023-05-23T07:26:51.838Z,5.00
2023-05-23T07:29:18.372Z,5.20
2023-05-23T07:31:44.968Z,5.40
2023-05-23T07:34:11.615Z,5.10
2023-05-23T07:36:38.148Z,5.60
2023-05-23T07:39:04.663Z,5.50
2023-05-23T07:41:31.242Z,5.90
2023-05-23T07:43:57.832Z,4.90
2023-05-23T07:46:24.361Z,5.50
2023-05-23T07:48:50.904Z,7.10
2023-05-23T07:51:17.435Z,5.40
2023-05-23T07:53:43.979Z,5.60
2023-05-23T07:56:10.509Z,5.80
2023-05-23T07:58:37.050Z,5.50
2023-05-23T08:01:03.665Z,4.50
2023-05-23T08:03:30.150Z,5.40
2023-05-23T08:05:56.648Z,5.00
2023-05-23T08:08:23.187Z,6.10
2023-05-23T08:10:49.840Z,7.40
2023-05-23T08:13:16.573Z,5.60
2023-05-23T08:15:43.159Z,6.00
2023-05-23T08:18:09.980Z,5.60
2023-05-23T08:20:36.623Z,5.30
2023-05-23T08:23:03.160Z,5.40
2023-05-23T08:25:30.050Z,5.80
2023-05-23T08:27:57.646Z,5.50
2023-05-23T08:30:25.154Z,5.40
2023-05-23T08:32:53.192Z,5.60
2023-05-23T08:35:19.767Z,5.00
2023-05-23T08:37:46.459Z,5.60
2023-05-23T08:40:20.756Z,5.40
2023-05-23T08:42:50.762Z,5.70
2023-05-23T08:45:18.252Z,5.90
2023-05-23T08:47:45.991Z,5.40
2023-05-23T08:50:14.811Z,5.40
2023-05-23T08:52:48.021Z,5.70
2023-05-23T08:55:15.051Z,5.60
2023-05-23T08:57:42.112Z,5.70
2023-05-23T09:00:10.784Z,5.40
2023-05-23T09:02:38.193Z,6.10
2023-05-23T09:05:05.726Z,5.20
2023-05-23T09:07:32.278Z,5.80
2023-05-23T09:09:58.818Z,5.50
2023-05-23T09:12:25.406Z,5.10
2023-05-23T09:14:52.902Z,5.30
2023-05-23T09:17:19.444Z,5.60
2023-05-23T09:19:46.498Z,5.00
2023-05-23T09:22:13.442Z,5.00
2023-05-23T09:24:39.961Z,5.90
2023-05-23T09:27:06.510Z,5.30
2023-05-23T09:29:33.055Z,5.60
2023-05-23T09:32:14.673Z,5.10
2023-05-23T09:35:01.401Z,5.20
2023-05-23T09:37:31.446Z,5.50
2023-05-23T09:39:59.183Z,4.80
2023-05-23T09:42:25.900Z,5.50
2023-05-23T09:44:53.856Z,5.20
2023-05-23T09:47:20.474Z,5.40
2023-05-23T09:49:47.129Z,5.60
2023-05-23T09:52:13.815Z,5.40
2023-05-23T09:54:40.685Z,6.00
2023-05-23T09:57:10.551Z,6.70
2023-05-23T09:59:42.446Z,5.70
2023-05-23T10:02:12.333Z,5.60
2023-05-23T10:04:43.438Z,6.40
2023-05-23T10:07:15.139Z,6.10
2023-05-23T10:09:45.467Z,5.90
2023-05-23T10:12:42.102Z,5.70
2023-05-23T10:15:11.229Z,5.90
2023-05-23T10:17:46.710Z,5.80
2023-05-23T10:20:16.764Z,6.10
2023-05-23T10:22:43.911Z,6.00
2023-05-23T10:25:10.620Z,5.80
2023-05-23T10:27:38.479Z,5.60
2023-05-23T10:30:06.411Z,5.80
2023-05-23T10:32:34.498Z,5.50
2023-05-23T10:35:07.455Z,6.20
2023-05-23T10:37:47.060Z,5.90
2023-05-23T10:40:24.388Z,6.10
2023-05-23T10:43:12.496Z,5.60
2023-05-23T10:45:43.214Z,5.70
2023-05-23T10:48:28.344Z,5.00
2023-05-23T10:51:15.231Z,4.70
2023-05-23T10:53:46.825Z,4.50
2023-05-23T10:56:23.399Z,4.90
2023-05-23T10:58:54.601Z,4.50
2023-05-23T11:01:21.447Z,4.50
2023-05-23T11:03:49.303Z,4.80
2023-05-23T11:06:33.649Z,4.60
2023-05-23T11:09:10.978Z,21.50
2023-05-23T11:12:00.346Z,5.70
2023-05-23T11:14:32.817Z,5.30
2023-05-23T11:17:00.822Z,5.50
2023-05-23T11:19:29.247Z,4.90
2023-05-23T11:21:59.866Z,5.10
2023-05-23T11:24:59.526Z,4.70
2023-05-23T11:27:31.562Z,4.20
2023-05-23T11:30:06.809Z,4.90
2023-05-23T11:32:34.364Z,4.70
2023-05-23T11:35:08.813Z,5.00
2023-05-23T11:37:36.366Z,5.10
2023-05-23T11:40:28.753Z,4.80
2023-05-23T11:42:55.988Z,5.00
2023-05-23T11:45:23.473Z,5.60
2023-05-23T11:47:50.067Z,4.90
2023-05-23T11:50:17.271Z,4.80
2023-05-23T11:52:43.998Z,5.40
2023-05-23T11:55:10.581Z,5.40
2023-05-23T11:57:40.183Z,5.20
2023-05-23T12:00:07.825Z,5.50
2023-05-23T12:02:41.006Z,5.40
2023-05-23T12:05:09.547Z,5.70
2023-05-23T12:07:36.453Z,6.00
2023-05-23T12:10:06.569Z,5.20
2023-05-23T12:12:33.165Z,4.80
2023-05-23T12:14:59.737Z,4.40
2023-05-23T12:17:26.943Z,5.30
2023-05-23T12:19:53.503Z,5.00
2023-05-23T12:22:23.935Z,5.10
2023-05-23T12:24:53.849Z,4.60
2023-05-23T12:27:26.409Z,5.40
2023-05-23T12:30:05.038Z,5.50
2023-05-23T12:32:31.646Z,5.40
2023-05-23T12:34:58.236Z,4.90
2023-05-23T12:37:24.808Z,5.70
2023-05-23T12:39:51.683Z,5.10
2023-05-23T12:42:18.207Z,5.10
2023-05-23T12:44:44.703Z,5.80
2023-05-23T12:47:11.278Z,5.20
2023-05-23T12:49:38.357Z,8.90
2023-05-23T12:52:05.009Z,7.00
2023-05-23T12:54:31.503Z,6.10
2023-05-23T12:56:58.077Z,6.40
2023-05-23T12:59:24.631Z,5.70
2023-05-23T13:01:51.254Z,5.80
2023-05-23T13:04:17.875Z,6.30
2023-05-23T13:06:44.520Z,5.80
2023-05-23T13:09:11.051Z,5.80
2023-05-23T13:11:37.620Z,5.00
2023-05-23T13:14:04.127Z,5.40
2023-05-23T13:16:30.782Z,5.60
2023-05-23T13:18:57.802Z,5.50
2023-05-23T13:21:24.400Z,4.90
2023-05-23T13:23:50.945Z,5.10
2023-05-23T13:26:17.474Z,5.60
2023-05-23T13:28:44.012Z,5.30
2023-05-23T13:31:10.658Z,5.40
2023-05-23T13:33:37.139Z,6.80
2023-05-23T13:36:04.028Z,4.90
2023-05-23T13:38:30.535Z,5.40
2023-05-23T13:40:57.038Z,4.90
2023-05-23T13:43:23.577Z,5.20
2023-05-23T13:45:50.045Z,5.60
2023-05-23T13:48:16.606Z,5.50
2023-05-23T13:50:43.477Z,5.30
2023-05-23T13:53:10.295Z,5.10
2023-05-23T13:55:36.789Z,5.20
2023-05-23T13:58:03.282Z,5.30
2023-05-23T14:00:29.817Z,5.50
2023-05-23T14:02:56.338Z,4.80
2023-05-23T14:05:22.930Z,5.50
2023-05-23T14:07:49.487Z,4.60
2023-05-23T14:10:16.118Z,4.80
2023-05-23T14:12:42.705Z,4.80
2023-05-23T14:15:10.136Z,5.30
2023-05-23T14:17:36.725Z,5.00
2023-05-23T14:20:04.224Z,6.10
2023-05-23T14:22:30.782Z,5.30
2023-05-23T14:24:58.472Z,22.10
2023-05-23T14:27:25.178Z,4.90
2023-05-23T14:29:51.693Z,4.80
2023-05-23T14:32:18.435Z,4.50
2023-05-23T14:34:45.019Z,4.80
2023-05-23T14:37:11.533Z,4.60
2023-05-23T14:39:38.054Z,5.00
2023-05-23T14:42:04.960Z,4.90
2023-05-23T14:44:31.474Z,4.80
2023-05-23T14:46:57.984Z,4.40
2023-05-23T14:49:24.512Z,4.40
2023-05-23T14:51:51.435Z,4.10
2023-05-23T14:54:18.915Z,4.00
2023-05-23T14:56:45.523Z,4.10
2023-05-23T14:59:12.077Z,4.90
2023-05-23T15:01:40.406Z,4.10
2023-05-23T15:04:07.732Z,4.50
2023-05-23T15:06:34.410Z,4.20
2023-05-23T15:09:01.016Z,5.10
2023-05-23T15:11:27.843Z,4.30
2023-05-23T15:13:54.446Z,4.60
2023-05-23T15:16:21.023Z,4.50
2023-05-23T15:18:47.702Z,4.40
2023-05-23T15:21:14.465Z,4.50
2023-05-23T15:23:40.971Z,4.60
2023-05-23T15:26:07.536Z,4.10
2023-05-23T15:28:34.254Z,4.70
2023-05-23T15:31:00.879Z,4.40
2023-05-23T15:33:27.531Z,4.70
2023-05-23T15:35:54.120Z,4.90
2023-05-23T15:38:20.654Z,4.90
2023-05-23T15:40:47.280Z,4.40
2023-05-23T15:43:13.826Z,4.60
2023-05-23T15:45:40.357Z,4.60
2023-05-23T15:48:06.946Z,4.20
2023-05-23T15:50:33.536Z,5.40
2023-05-23T15:53:00.022Z,4.60
2023-05-23T15:55:26.545Z,4.10
2023-05-23T15:57:53.090Z,3.90
2023-05-23T16:00:20.060Z,4.10
2023-05-23T16:02:46.703Z,4.10
2023-05-23T16:05:13.300Z,3.80
2023-05-23T16:07:39.823Z,4.20
2023-05-23T16:10:06.683Z,3.90
2023-05-23T16:12:33.143Z,4.70
2023-05-23T16:14:59.660Z,3.90
2023-05-23T16:17:26.155Z,3.80
2023-05-23T16:19:52.646Z,4.50
2023-05-23T16:22:19.136Z,4.50
2023-05-23T16:24:45.634Z,4.40
2023-05-23T16:27:12.247Z,4.20
2023-05-23T16:29:38.739Z,4.20
2023-05-23T16:32:05.795Z,4.60
2023-05-23T16:34:32.466Z,4.30
2023-05-23T16:36:58.975Z,4.30
2023-05-23T16:39:25.495Z,4.00
2023-05-23T16:41:52.027Z,3.90
2023-05-23T16:44:18.643Z,5.00
2023-05-23T16:46:45.356Z,4.30
2023-05-23T16:49:11.970Z,4.00
2023-05-23T16:51:38.935Z,4.10
2023-05-23T16:54:05.555Z,4.50
2023-05-23T16:56:32.045Z,3.70
2023-05-23T16:58:58.565Z,4.30
2023-05-23T17:01:25.227Z,5.00
2023-05-23T17:03:51.976Z,4.00
2023-05-23T17:06:18.571Z,4.20
2023-05-23T17:08:45.022Z,4.10
2023-05-23T17:11:11.506Z,4.10
2023-05-23T17:13:38.003Z,4.40
2023-05-23T17:16:04.756Z,4.10
2023-05-23T17:18:31.295Z,4.50
2023-05-23T17:20:58.233Z,4.40
2023-05-23T17:23:25.057Z,4.50
2023-05-23T17:25:51.614Z,4.20
2023-05-23T17:28:18.118Z,4.10
2023-05-23T17:30:44.640Z,4.60
2023-05-23T17:33:11.233Z,4.30
2023-05-23T17:35:37.826Z,4.90
2023-05-23T17:38:04.412Z,4.60
2023-05-23T17:40:31.033Z,9.70
2023-05-23T17:42:57.746Z,4.80
2023-05-23T17:45:24.432Z,4.60
2023-05-23T17:47:51.002Z,4.60
2023-05-23T17:50:17.749Z,4.20
2023-05-23T17:52:44.345Z,4.70
2023-05-23T17:55:10.966Z,4.30
2023-05-23T17:57:37.453Z,5.10
2023-05-23T18:00:04.495Z,4.20
2023-05-23T18:02:31.044Z,5.10
2023-05-23T18:04:57.698Z,4.80
2023-05-23T18:07:24.176Z,4.80
2023-05-23T18:09:50.853Z,4.70
2023-05-23T18:12:17.357Z,4.60
2023-05-23T18:14:43.812Z,5.00
2023-05-23T18:17:10.455Z,4.70
2023-05-23T18:19:37.181Z,4.70
2023-05-23T18:22:03.982Z,4.30
2023-05-23T18:24:30.525Z,4.40
2023-05-23T18:26:57.984Z,4.30
2023-05-23T18:29:24.774Z,4.60
2023-05-23T18:31:51.271Z,4.10
2023-05-23T18:34:17.784Z,4.70
2023-05-23T18:36:44.323Z,5.00
2023-05-23T18:39:10.973Z,5.10
2023-05-23T18:41:37.496Z,5.00
2023-05-23T18:44:03.997Z,5.30
2023-05-23T18:46:30.645Z,4.30
2023-05-23T18:48:57.149Z,4.20
2023-05-23T18:51:23.730Z,4.40
2023-05-23T18:53:50.387Z,4.20
2023-05-23T18:56:16.927Z,4.20
2023-05-23T18:58:45.323Z,4.90
2023-05-23T19:01:13.232Z,4.60
2023-05-23T19:03:39.874Z,5.00
2023-05-23T19:06:06.828Z,4.70
2023-05-23T19:08:33.693Z,4.70
2023-05-23T19:11:00.682Z,4.40
2023-05-23T19:13:27.389Z,4.40
2023-05-23T19:15:54.366Z,4.70
2023-05-23T19:18:20.936Z,4.00
2023-05-23T19:20:47.679Z,3.90
2023-05-23T19:23:14.575Z,4.00
2023-05-23T19:25:41.086Z,4.20
2023-05-23T19:28:07.724Z,4.10
2023-05-23T19:30:34.303Z,3.90
2023-05-23T19:33:00.912Z,4.30
2023-05-23T19:35:28.373Z,4.20
2023-05-23T19:37:54.944Z,4.10
2023-05-23T19:40:21.444Z,4.20
2023-05-23T19:42:48.530Z,4.30
2023-05-23T19:45:15.207Z,4.10
2023-05-23T19:47:41.729Z,3.90
2023-05-23T19:50:10.715Z,4.00
2023-05-23T19:52:37.278Z,4.20
2023-05-23T19:55:04.148Z,3.90
2023-05-23T19:57:31.373Z,4.20
2023-05-23T19:59:57.940Z,4.20
2023-05-23T20:02:24.549Z,4.50
2023-05-23T20:04:51.100Z,4.00
2023-05-23T20:07:17.688Z,4.10
2023-05-23T20:09:44.228Z,4.30
2023-05-23T20:12:10.826Z,4.20
2023-05-23T20:14:37.371Z,4.30
2023-05-23T20:17:04.042Z,4.90
2023-05-23T20:19:30.589Z,4.40
2023-05-23T20:21:57.167Z,4.20
2023-05-23T20:24:24.329Z,5.40
2023-05-23T20:26:50.992Z,4.60
2023-05-23T20:29:17.514Z,4.60
2023-05-23T20:31:44.217Z,4.60
2023-05-23T20:34:10.801Z,4.60
2023-05-23T20:36:37.426Z,4.40
2023-05-23T20:39:04.099Z,4.90
2023-05-23T20:41:30.647Z,4.70
2023-05-23T20:43:57.150Z,4.70
2023-05-23T20:46:23.748Z,4.80
2023-05-23T20:48:50.378Z,4.70
2023-05-23T20:51:16.978Z,4.40
2023-05-23T20:53:43.476Z,4.80
2023-05-23T20:56:10.012Z,4.50
2023-05-23T20:58:36.883Z,4.30
2023-05-23T21:01:03.460Z,4.50
2023-05-23T21:03:30.095Z,4.80
2023-05-23T21:05:56.712Z,4.10
2023-05-23T21:08:23.250Z,4.50
2023-05-23T21:10:51.669Z,4.20
2023-05-23T21:13:20.906Z,3.80
2023-05-23T21:15:47.557Z,4.50
2023-05-23T21:18:14.075Z,5.00
2023-05-23T21:20:40.730Z,4.60
2023-05-23T21:23:07.573Z,4.90
2023-05-23T21:25:34.085Z,4.70
2023-05-23T21:28:00.597Z,4.40
2023-05-23T21:30:27.252Z,4.70
2023-05-23T21:32:53.875Z,4.10
2023-05-23T21:35:20.415Z,4.30
2023-05-23T21:37:46.899Z,4.70
2023-05-23T21:40:13.392Z,4.30
2023-05-23T21:42:39.889Z,4.40
2023-05-23T21:45:07.203Z,4.10
2023-05-23T21:47:33.804Z,5.10
2023-05-23T21:50:00.318Z,4.70
2023-05-23T21:52:26.878Z,4.20
2023-05-23T21:54:53.417Z,4.50
2023-05-23T21:57:19.887Z,4.70
2023-05-23T21:59:46.417Z,5.10
2023-05-23T22:02:13.031Z,5.00
2023-05-23T22:04:39.578Z,4.60
2023-05-23T22:07:06.112Z,5.00
2023-05-23T22:09:32.607Z,4.50
2023-05-23T22:11:59.114Z,4.90
2023-05-23T22:14:25.637Z,5.20
2023-05-23T22:16:52.175Z,4.70
2023-05-23T22:19:18.769Z,4.70
2023-05-23T22:21:45.542Z,4.70
2023-05-23T22:24:12.170Z,4.50
2023-05-23T22:26:38.667Z,4.80
2023-05-23T22:29:05.419Z,4.40
2023-05-23T22:31:31.948Z,4.90
2023-05-23T22:33:58.561Z,4.60
2023-05-23T22:36:25.075Z,4.70
2023-05-23T22:38:51.614Z,4.70
2023-05-23T22:41:18.515Z,4.60
2023-05-23T22:43:45.425Z,5.00
2023-05-23T22:46:11.981Z,4.60
2023-05-23T22:48:38.563Z,5.00
2023-05-23T22:51:05.440Z,6.90
2023-05-23T22:53:32.150Z,5.20
2023-05-23T22:55:58.674Z,4.50
2023-05-23T22:58:25.223Z,4.00
2023-05-23T23:00:51.972Z,4.00
2023-05-23T23:03:18.842Z,4.40
2023-05-23T23:05:45.564Z,4.70
2023-05-23T23:08:12.221Z,4.60
2023-05-23T23:10:39.377Z,4.70
2023-05-23T23:13:05.924Z,4.70
2023-05-23T23:15:32.425Z,4.80
2023-05-23T23:17:59.357Z,4.60
2023-05-23T23:20:25.920Z,4.40
2023-05-23T23:22:52.519Z,4.50
2023-05-23T23:25:19.092Z,4.30
2023-05-23T23:27:45.633Z,4.70
2023-05-23T23:30:12.515Z,4.10
2023-05-23T23:32:39.072Z,4.50
2023-05-23T23:35:06.043Z,4.30
2023-05-23T23:37:32.552Z,4.60
2023-05-23T23:39:59.130Z,4.30
2023-05-23T23:42:25.610Z,4.40
2023-05-23T23:44:52.104Z,4.50
2023-05-23T23:47:18.622Z,4.30
2023-05-23T23:49:45.126Z,4.40
2023-05-23T23:52:11.677Z,4.60
2023-05-23T23:54:38.206Z,4.50
2023-05-23T23:57:04.797Z,4.00
2023-05-23T23:59:31.276Z,4.70
